Daily Reports
[Select Refresh to Update]
Updated Automatically by Ambient Software's Virtual Weather Station  V14.01


Daily Archive Report

Parameter                   Max   Max Time        Min   Min Time    Average
Wind Direction              357     9:10am          4     5:52am        270
Wind Speed                 19.0     2:28am        0.0    12:06am        2.6
Wind Gust                  19.0     2:28am        0.0     5:00pm       11.6
Humidity                     67     2:25am         29     2:40pm         47
Out Temp                   29.8    12:00am       19.5     6:36am       24.5
Raw Barometer             30.37    10:44pm      29.95    12:00am      30.20
Dew Point                  19.1    12:00am       -1.4     2:40pm        6.5


Today's  Data File

3/4/15
Time         Wind Dir   Wind Spd  Wind Gust   Humidity       Temp  Raw Barom  Dew Point Barom Rate Wind Spd H WindGust H Humidity H Temp Out H Humidity L Temp Out L  DailyRain   24HrRain
                            mph        mph          %         F         in         F      in/hr        mph        mph          %         F          %         F         in         in
12:00am           271        2.0       14.0         64       29.8      29.95       19.1      0.037       14.0       14.0         64       29.8         64       29.8       0.00       0.00
12:05am           268        2.0        4.0         64       29.7      29.95       19.0      0.034       14.0       14.0         64       29.8         64       29.7       0.00       0.00
12:10am           273        2.0       10.0         64       29.4      29.95       18.7      0.031       14.0       14.0         64       29.8         64       29.4       0.00       0.00
12:15am           275        1.0       10.0         64       29.3      29.96       18.6      0.040       14.0       14.0         64       29.8         64       29.3       0.00       0.00
12:20am           275        2.0       10.0         64       29.1      29.96       18.5      0.037       14.0       14.0         64       29.8         64       29.1       0.00       0.00
12:25am           252        5.0       10.0         64       29.0      29.96       18.4      0.034       14.0       14.0         64       29.8         64       29.0       0.00       0.00
12:30am           280        5.0       10.0         64       29.0      29.97       18.4      0.040       14.0       14.0         64       29.8         64       29.0       0.00       0.00
12:35am           265        2.0       10.0         64       28.8      29.97       18.2      0.037       14.0       14.0         64       29.8         63       28.8       0.00       0.00
12:40am           254        7.0       10.0         63       28.8      29.97       17.8      0.034       14.0       14.0         64       29.8         63       28.8       0.00       0.00
12:45am           252        5.0       10.0         62       28.7      29.99       17.3      0.048       14.0       14.0         64       29.8         62       28.7       0.00       0.00
12:50am           256        2.0       10.0         61       28.7      29.99       17.0      0.044       14.0       14.0         64       29.8         61       28.7       0.00       0.00
12:55am           230        3.0       10.0         60       28.7      29.99       16.6      0.041       14.0       14.0         64       29.8         60       28.7       0.00       0.00
1:00am            266        6.0       10.0         60       28.5      30.00       16.4      0.049       14.0       14.0         64       29.8         60       28.5       0.00       0.00
1:05am            297        2.0       11.0         59       28.4      30.00       15.9      0.045       14.0       14.0         64       29.8         59       28.4       0.00       0.00
1:10am            319        2.0       12.0         58       28.2      30.00       15.3      0.042       14.0       14.0         64       29.8         58       28.2       0.00       0.00
1:15am            278        3.0       12.0         59       28.2      30.00       15.7      0.034       14.0       14.0         64       29.8         58       28.2       0.00       0.00
1:20am            276        2.0       13.0         60       28.1      30.00       16.0      0.032       14.0       14.0         64       29.8         58       28.1       0.00       0.00
1:25am            269       13.0       13.0         61       27.9      30.00       16.2      0.029       14.0       14.0         64       29.8         58       27.9       0.00       0.00
1:30am            242        5.0       13.0         62       27.6      30.02       16.3      0.049       14.0       14.0         64       29.8         58       27.6       0.00       0.00
1:35am            300        0.0       13.0         62       27.3      30.02       16.0      0.045       14.0       14.0         64       29.8         58       27.3       0.00       0.00
1:40am            280        2.0       13.0         63       27.0      30.02       16.1      0.041       14.0       14.0         64       29.8         58       27.0       0.00       0.00
1:45am            288        4.0       13.0         64       26.9      30.03       16.4      0.048       14.0       14.0         64       29.8         58       26.9       0.00       0.00
1:50am            272        1.0       13.0         64       26.7      30.03       16.2      0.044       14.0       14.0         64       29.8         58       26.7       0.00       0.00
1:55am            266        5.0       13.0         65       26.7      30.03       16.5      0.040       14.0       14.0         65       29.8         58       26.7       0.00       0.00
2:00am            256        6.0       13.0         65       26.4      30.03       16.2      0.037       14.0       14.0         65       29.8         58       26.4       0.00       0.00
2:05am            252        3.0        8.0         66       26.3      30.03       16.5      0.034       14.0       14.0         66       29.8         58       26.3       0.00       0.00
2:10am            282        2.0        8.0         66       26.0      30.03       16.2      0.031       14.0       14.0         66       29.8         58       26.0       0.00       0.00
2:15am            271        7.0       16.0         66       25.8      30.01       16.0      0.011       16.0       16.0         66       29.8         58       25.8       0.00       0.00
2:20am            259        5.0       16.0         66       25.4      30.01       15.6      0.010       16.0       16.0         66       29.8         58       25.4       0.00       0.00
2:25am            316        1.0       16.0         66       25.3      30.01       15.5      0.009       16.0       16.0         66       29.8         58       25.3       0.00       0.00
2:30am            279        6.0       19.0         67       25.0      30.03       15.6      0.028       19.0       19.0         67       29.8         58       25.0       0.00       0.00
2:35am            251        7.0       19.0         65       24.5      30.03       14.4      0.026       19.0       19.0         67       29.8         58       24.5       0.00       0.00
2:40am            289        2.0       19.0         64       24.2      30.03       13.8      0.024       19.0       19.0         67       29.8         58       24.2       0.00       0.00
2:45am            251        5.0       19.0         64       23.9      30.05       13.5      0.041       19.0       19.0         67       29.8         58       23.9       0.00       0.00
2:50am            306        1.0       19.0         63       23.6      30.05       12.9      0.038       19.0       19.0         67       29.8         58       23.6       0.00       0.00
2:55am            276       12.0       19.0         63       23.3      30.05       12.6      0.035       19.0       19.0         67       29.8         58       23.3       0.00       0.00
3:00am            337        5.0       19.0         63       23.0      30.05       12.3      0.033       19.0       19.0         67       29.8         58       23.0       0.00       0.00
3:05am            251        7.0       13.0         63       22.9      30.05       12.2      0.030       19.0       19.0         67       29.8         58       22.9       0.00       0.00
3:10am            264        2.0       13.0         63       22.7      30.05       12.0      0.028       19.0       19.0         67       29.8         58       22.7       0.00       0.00
3:15am            275        8.0       18.0         62       22.5      30.06       11.5      0.031       19.0       19.0         67       29.8         58       22.5       0.00       0.00
3:20am            273        4.0       18.0         62       22.4      30.06       11.4      0.029       19.0       19.0         67       29.8         58       22.4       0.00       0.00
3:25am            266        2.0       18.0         61       22.2      30.06       10.8      0.027       19.0       19.0         67       29.8         58       22.2       0.00       0.00
3:30am            280        7.0       18.0         61       21.9      30.07       10.5      0.034       19.0       19.0         67       29.8         58       21.9       0.00       0.00
3:35am            302       11.0       18.0         61       21.6      30.07       10.2      0.032       19.0       19.0         67       29.8         58       21.6       0.00       0.00
3:40am            261        8.0       18.0         61       21.3      30.07       10.0      0.029       19.0       19.0         67       29.8         58       21.3       0.00       0.00
3:45am            271        5.0       18.0         61       21.1      30.07        9.8      0.028       19.0       19.0         67       29.8         58       21.1       0.00       0.00
3:50am            261        3.0       18.0         61       21.0      30.07        9.7      0.025       19.0       19.0         67       29.8         58       21.0       0.00       0.00
3:55am            261        2.0       18.0         62       20.8      30.07        9.8      0.023       19.0       19.0         67       29.8         58       20.8       0.00       0.00
4:00am            279        6.0       18.0         61       20.8      30.09        9.5      0.049       19.0       19.0         67       29.8         58       20.8       0.00       0.00
4:05am            276        2.0       11.0         61       20.8      30.09        9.5      0.045       19.0       19.0         67       29.8         58       20.8       0.00       0.00
4:10am            268        0.0       11.0         61       20.6      30.09        9.3      0.042       19.0       19.0         67       29.8         58       20.6       0.00       0.00
4:15am            254        1.0       13.0         61       20.6      30.10        9.3      0.043       19.0       19.0         67       29.8         58       20.6       0.00       0.00
4:20am            313        5.0       13.0         60       20.8      30.10        9.1      0.040       19.0       19.0         67       29.8         58       20.6       0.00       0.00
4:25am            271        1.0       13.0         60       20.8      30.10        9.1      0.037       19.0       19.0         67       29.8         58       20.6       0.00       0.00
4:30am            264        3.0       13.0         57       20.8      30.10        8.0      0.034       19.0       19.0         67       29.8         57       20.6       0.00       0.00
4:35am            262        1.0       13.0         54       20.8      30.10        6.8      0.031       19.0       19.0         67       29.8         54       20.6       0.00       0.00
4:40am            278        3.0       13.0         52       20.8      30.10        6.0      0.028       19.0       19.0         67       29.8         52       20.6       0.00       0.00
4:45am            313        1.0       13.0         51       20.8      30.11        5.5      0.032       19.0       19.0         67       29.8         51       20.6       0.00       0.00
4:50am            280        3.0       13.0         50       20.8      30.11        5.1      0.030       19.0       19.0         67       29.8         50       20.6       0.00       0.00
4:55am            313        2.0       13.0         50       20.8      30.11        5.1      0.027       19.0       19.0         67       29.8         50       20.6       0.00       0.00
5:00am            319        2.0       13.0         49       20.8      30.13        4.7      0.050       19.0       19.0         67       29.8         49       20.6       0.00       0.00
5:05am            264        7.0       10.0         49       20.8      30.13        4.7      0.046       19.0       19.0         67       29.8         49       20.6       0.00       0.00
5:10am            319        6.0       10.0         48       20.8      30.13        4.2      0.042       19.0       19.0         67       29.8         48       20.6       0.00       0.00
5:15am            278        1.0       13.0         49       20.8      30.15        4.7      0.054       19.0       19.0         67       29.8         48       20.6       0.00       0.00
5:20am            309        0.0       13.0         50       20.8      30.15        5.1      0.050       19.0       19.0         67       29.8         48       20.6       0.00       0.00
5:25am            269        3.0       13.0         48       20.6      30.15        4.0      0.046       19.0       19.0         67       29.8         48       20.6       0.00       0.00
5:30am            272        5.0       13.0         49       20.5      30.15        4.4      0.046       19.0       19.0         67       29.8         48       20.5       0.00       0.00
5:35am            304        5.0       13.0         49       20.3      30.15        4.2      0.043       19.0       19.0         67       29.8         48       20.3       0.00       0.00
5:40am            296        1.0       13.0         50       20.3      30.15        4.6      0.039       19.0       19.0         67       29.8         48       20.3       0.00       0.00
5:45am            320        8.0       13.0         51       20.2      30.14        5.0      0.023       19.0       19.0         67       29.8         48       20.2       0.00       0.00
5:50am            316        2.0       13.0         51       20.0      30.14        4.8      0.021       19.0       19.0         67       29.8         48       20.0       0.00       0.00
5:55am            288        0.0       13.0         51       20.0      30.14        4.8      0.020       19.0       19.0         67       29.8         48       20.0       0.00       0.00
6:00am            316        2.0       13.0         52       20.0      30.16        5.2      0.035       19.0       19.0         67       29.8         48       20.0       0.00       0.00
6:05am            273        4.0       11.0         52       20.0      30.16        5.2      0.032       19.0       19.0         67       29.8         48       20.0       0.00       0.00
6:10am            279        3.0       11.0         52       20.0      30.16        5.2      0.029       19.0       19.0         67       29.8         48       20.0       0.00       0.00
6:15am            262        6.0       11.0         53       19.9      30.15        5.5      0.025       19.0       19.0         67       29.8         48       19.9       0.00       0.00
6:20am            268        3.0       12.0         53       19.9      30.15        5.5      0.023       19.0       19.0         67       29.8         48       19.9       0.00       0.00
6:25am            299        1.0       12.0         53       19.7      30.15        5.4      0.021       19.0       19.0         67       29.8         48       19.7       0.00       0.00
6:30am            282        3.0       12.0         53       19.7      30.16        5.4      0.026       19.0       19.0         67       29.8         48       19.7       0.00       0.00
6:35am            271        7.0       12.0         53       19.7      30.16        5.4      0.023       19.0       19.0         67       29.8         48       19.7       0.00       0.00
6:40am            321        1.0       12.0         54       19.5      30.16        5.6      0.022       19.0       19.0         67       29.8         48       19.5       0.00       0.00
6:45am            303        1.0       12.0         54       19.5      30.16        5.6      0.026       19.0       19.0         67       29.8         48       19.5       0.00       0.00
6:50am            295        3.0       12.0         54       19.5      30.16        5.6      0.024       19.0       19.0         67       29.8         48       19.5       0.00       0.00
6:55am            313        2.0       12.0         55       19.7      30.16        6.2      0.022       19.0       19.0         67       29.8         48       19.5       0.00       0.00
7:00am            245        7.0       12.0         54       19.7      30.17        5.8      0.021       19.0       19.0         67       29.8         48       19.5       0.00       0.00
7:05am            307        6.0       14.0         54       19.7      30.17        5.8      0.019       19.0       19.0         67       29.8         48       19.5       0.00       0.00
7:10am            323        5.0       14.0         54       19.7      30.17        5.8      0.018       19.0       19.0         67       29.8         48       19.5       0.00       0.00
7:15am            280        3.0       14.0         55       19.7      30.18        6.2      0.028       19.0       19.0         67       29.8         48       19.5       0.00       0.00
7:20am            302        2.0       14.0         55       19.7      30.18        6.2      0.026       19.0       19.0         67       29.8         48       19.5       0.00       0.00
7:25am            321        3.0       14.0         55       19.9      30.18        6.4      0.024       19.0       19.0         67       29.8         48       19.5       0.00       0.00
7:30am            320        1.0       14.0         56       19.9      30.18        6.7      0.028       19.0       19.0         67       29.8         48       19.5       0.00       0.00
7:35am            273       10.0       14.0         56       19.9      30.18        6.7      0.026       19.0       19.0         67       29.8         48       19.5       0.00       0.00
7:40am            282        1.0       14.0         56       19.9      30.18        6.7      0.024       19.0       19.0         67       29.8         48       19.5       0.00       0.00
7:45am            280        3.0       17.0         56       20.0      30.19        6.8      0.032       19.0       19.0         67       29.8         48       19.5       0.00       0.00
7:50am            313        3.0       17.0         56       20.0      30.19        6.8      0.029       19.0       19.0         67       29.8         48       19.5       0.00       0.00
7:55am            265        0.0       17.0         57       20.0      30.19        7.2      0.027       19.0       19.0         67       29.8         48       19.5       0.00       0.00
8:00am            280       10.0       17.0         57       19.9      30.21        7.1      0.042       19.0       19.0         67       29.8         48       19.5       0.00       0.00
8:05am            293        2.0       12.0         57       19.9      30.21        7.1      0.039       19.0       19.0         67       29.8         48       19.5       0.00       0.00
8:10am            254        3.0       12.0         58       19.7      30.21        7.3      0.036       19.0       19.0         67       29.8         48       19.5       0.00       0.00
8:15am            289        2.0       12.0         59       19.7      30.22        7.7      0.038       19.0       19.0         67       29.8         48       19.5       0.00       0.00
8:20am            273        3.0       12.0         60       19.9      30.22        8.3      0.035       19.0       19.0         67       29.8         48       19.5       0.00       0.00
8:25am            285        1.0       12.0         60       19.9      30.22        8.3      0.032       19.0       19.0         67       29.8         48       19.5       0.00       0.00
8:30am            323        4.0       12.0         59       19.9      30.22        7.9      0.036       19.0       19.0         67       29.8         48       19.5       0.00       0.00
8:35am            269        9.0       12.0         59       19.9      30.22        7.9      0.033       19.0       19.0         67       29.8         48       19.5       0.00       0.00
8:40am            272        3.0       12.0         58       19.9      30.22        7.5      0.031       19.0       19.0         67       29.8         48       19.5       0.00       0.00
8:45am            269        5.0       12.0         57       20.0      30.22        7.2      0.029       19.0       19.0         67       29.8         48       19.5       0.00       0.00
8:50am            269        1.0       12.0         56       20.2      30.22        7.0      0.027       19.0       19.0         67       29.8         48       19.5       0.00       0.00
8:55am            268        5.0       12.0         56       20.5      30.22        7.3      0.025       19.0       19.0         67       29.8         48       19.5       0.00       0.00
9:00am            282        3.0       12.0         56       20.8      30.24        7.6      0.033       19.0       19.0         67       29.8         48       19.5       0.00       0.00
9:05am            262        5.0       11.0         54       21.0      30.24        7.0      0.030       19.0       19.0         67       29.8         48       19.5       0.00       0.00
9:10am            261        5.0       11.0         54       21.1      30.24        7.1      0.028       19.0       19.0         67       29.8         48       19.5       0.00       0.00
9:15am            314        2.0       11.0         53       21.3      30.24        6.8      0.028       19.0       19.0         67       29.8         48       19.5       0.00       0.00
9:20am            273        3.0       11.0         53       21.4      30.24        6.9      0.026       19.0       19.0         67       29.8         48       19.5       0.00       0.00
9:25am            254        3.0       11.0         52       21.6      30.24        6.7      0.024       19.0       19.0         67       29.8         48       19.5       0.00       0.00
9:30am            273        1.0       11.0         52       21.6      30.24        6.7      0.027       19.0       19.0         67       29.8         48       19.5       0.00       0.00
9:35am            273        5.0       11.0         50       21.8      30.24        6.0      0.025       19.0       19.0         67       29.8         48       19.5       0.00       0.00
9:40am            275        4.0       11.0         50       21.6      30.24        5.8      0.023       19.0       19.0         67       29.8         48       19.5       0.00       0.00
9:45am            282        3.0       11.0         51       21.9      30.25        6.6      0.024       19.0       19.0         67       29.8         48       19.5       0.00       0.00
9:50am            319        3.0       11.0         50       22.1      30.25        6.3      0.022       19.0       19.0         67       29.8         48       19.5       0.00       0.00
9:55am            288        2.0       15.0         50       22.1      30.25        6.3      0.020       19.0       19.0         67       29.8         48       19.5       0.00       0.00
10:00am           276        2.0       15.0         51       22.1      30.25        6.7      0.025       19.0       19.0         67       29.8         48       19.5       0.00       0.00
10:05am           265       11.0       11.0         50       22.1      30.25        6.3      0.023       19.0       19.0         67       29.8         48       19.5       0.00       0.00
10:10am           254        2.0       11.0         48       22.1      30.25        5.4      0.021       19.0       19.0         67       29.8         48       19.5       0.00       0.00
10:15am           276        5.0       11.0         48       22.2      30.25        5.5      0.016       19.0       19.0         67       29.8         48       19.5       0.00       0.00
10:20am           286       10.0       12.0         46       22.2      30.25        4.6      0.015       19.0       19.0         67       29.8         46       19.5       0.00       0.00
10:25am           276        5.0       14.0         46       22.2      30.25        4.6      0.014       19.0       19.0         67       29.8         45       19.5       0.00       0.00
10:30am           283        3.0       14.0         45       22.5      30.25        4.4      0.013       19.0       19.0         67       29.8         45       19.5       0.00       0.00
10:35am           306        6.0       14.0         46       22.5      30.25        4.9      0.012       19.0       19.0         67       29.8         45       19.5       0.00       0.00
10:40am           327        5.0       14.0         47       22.7      30.25        5.5      0.011       19.0       19.0         67       29.8         45       19.5       0.00       0.00
10:45am           272        1.0       14.0         47       22.7      30.25        5.5      0.007       19.0       19.0         67       29.8         45       19.5       0.00       0.00
10:50am           289        1.0       14.0         47       23.0      30.25        5.8      0.006       19.0       19.0         67       29.8         45       19.5       0.00       0.00
10:55am           272        6.0       14.0         48       23.5      30.25        6.7      0.006       19.0       19.0         67       29.8         45       19.5       0.00       0.00
11:00am           297        1.0       14.0         43       23.5      30.25        4.3      0.006       19.0       19.0         67       29.8         43       19.5       0.00       0.00
11:05am           276        1.0       11.0         43       23.6      30.25        4.4      0.006       19.0       19.0         67       29.8         43       19.5       0.00       0.00
11:10am           282        7.0       11.0         42       23.6      30.25        3.9      0.005       19.0       19.0         67       29.8         41       19.5       0.00       0.00
11:15am           268       13.0       14.0         41       23.5      30.24        3.3      0.001       19.0       19.0         67       29.8         41       19.5       0.00       0.00
11:20am           271        5.0       17.0         42       23.5      30.24        3.8      0.001       19.0       19.0         67       29.8         41       19.5       0.00       0.00
11:25am           275        7.0       17.0         41       23.6      30.24        3.4      0.001       19.0       19.0         67       29.8         41       19.5       0.00       0.00
11:30am           282        7.0       17.0         41       23.8      30.24        3.5      0.002       19.0       19.0         67       29.8         41       19.5       0.00       0.00
11:35am           275        1.0       17.0         43       24.1      30.24        4.9      0.002       19.0       19.0         67       29.8         41       19.5       0.00       0.00
11:40am           285        6.0       17.0         41       24.4      30.24        4.1      0.001       19.0       19.0         67       29.8         41       19.5       0.00       0.00
11:45am           268        2.0       17.0         41       24.5      30.24        4.2     -0.005       19.0       19.0         67       29.8         40       19.5       0.00       0.00
11:50am           304        2.0       17.0         40       24.5      30.24        3.6     -0.004       19.0       19.0         67       29.8         39       19.5       0.00       0.00
11:55am           314        6.0       17.0         38       24.5      30.24        2.5     -0.004       19.0       19.0         67       29.8         38       19.5       0.00       0.00
12:00pm           313        3.0       17.0         38       24.5      30.25        2.5      0.013       19.0       19.0         67       29.8         37       19.5       0.00       0.00
12:05pm           295        5.0        7.0         38       24.5      30.25        2.5      0.012       19.0       19.0         67       29.8         37       19.5       0.00       0.00
12:10pm           304        3.0       11.0         36       24.7      30.25        1.6      0.011       19.0       19.0         67       29.8         36       19.5       0.00       0.00
12:15pm           265        4.0       13.0         35       24.7      30.26        1.0      0.016       19.0       19.0         67       29.8         35       19.5       0.00       0.00
12:20pm           304        1.0       13.0         36       24.8      30.26        1.6      0.015       19.0       19.0         67       29.8         35       19.5       0.00       0.00
12:25pm           276        3.0       13.0         36       24.8      30.26        1.6      0.014       19.0       19.0         67       29.8         35       19.5       0.00       0.00
12:30pm           320        2.0       13.0         38       25.1      30.25        3.1      0.004       19.0       19.0         67       29.8         35       19.5       0.00       0.00
12:35pm           230        8.0       13.0         38       25.4      30.25        3.3      0.003       19.0       19.0         67       29.8         35       19.5       0.00       0.00
12:40pm           163        4.0       13.0         36       25.3      30.25        2.1      0.003       19.0       19.0         67       29.8         35       19.5       0.00       0.00
12:45pm           266        3.0       13.0         36       25.3      30.25        2.1      0.001       19.0       19.0         67       29.8         35       19.5       0.00       0.00
12:50pm           265        6.0       13.0         38       25.3      30.25        3.3      0.001       19.0       19.0         67       29.8         35       19.5       0.00       0.00
12:55pm           289        7.0       13.0         35       25.4      30.25        1.6      0.001       19.0       19.0         67       29.8         35       19.5       0.00       0.00
1:00pm            299        1.0       13.0         35       25.4      30.25        1.6     -0.002       19.0       19.0         67       29.8         34       19.5       0.00       0.00
1:05pm            264        0.0        7.0         34       25.6      30.25        1.1     -0.002       19.0       19.0         67       29.8         33       19.5       0.00       0.00
1:10pm            279        6.0       11.0         32       25.6      30.25       -0.2     -0.002       19.0       19.0         67       29.8         32       19.5       0.00       0.00
1:15pm            285        2.0       11.0         31       25.4      30.25       -1.0      0.002       19.0       19.0         67       29.8         31       19.5       0.00       0.00
1:20pm            333        4.0       11.0         32       25.4      30.25       -0.3      0.002       19.0       19.0         67       29.8         31       19.5       0.00       0.00
1:25pm            316        3.0       11.0         33       25.4      30.25        0.3      0.002       19.0       19.0         67       29.8         31       19.5       0.00       0.00
1:30pm            275        2.0       11.0         33       25.6      30.24        0.5     -0.010       19.0       19.0         67       29.8         31       19.5       0.00       0.00
1:35pm            312        5.0       11.0         33       25.4      30.24        0.3     -0.009       19.0       19.0         67       29.8         31       19.5       0.00       0.00
1:40pm            324        3.0       11.0         35       25.6      30.24        1.8     -0.009       19.0       19.0         67       29.8         31       19.5       0.00       0.00
1:45pm            309        3.0       12.0         34       25.6      30.22        1.1     -0.031       19.0       19.0         67       29.8         31       19.5       0.00       0.00
1:50pm            269        2.0       12.0         33       25.7      30.22        0.6     -0.029       19.0       19.0         67       29.8         31       19.5       0.00       0.00
1:55pm            290        2.0       12.0         32       25.7      30.22       -0.1     -0.027       19.0       19.0         67       29.8         31       19.5       0.00       0.00
2:00pm            269        3.0       12.0         34       25.8      30.22        1.3     -0.024       19.0       19.0         67       29.8         31       19.5       0.00       0.00
2:05pm            280        7.0       12.0         32       25.8      30.22        0.0     -0.022       19.0       19.0         67       29.8         31       19.5       0.00       0.00
2:10pm            254        8.0       12.0         31       25.8      30.22       -0.7     -0.020       19.0       19.0         67       29.8         31       19.5       0.00       0.00
2:15pm            256        2.0       12.0         32       26.1      30.22        0.3     -0.015       19.0       19.0         67       29.8         31       19.5       0.00       0.00
2:20pm            268        3.0       12.0         32       26.4      30.22        0.6     -0.014       19.0       19.0         67       29.8         31       19.5       0.00       0.00
2:25pm            251        0.0       12.0         31       26.3      30.22       -0.2     -0.013       19.0       19.0         67       29.8         31       19.5       0.00       0.00
2:30pm            326        2.0       12.0         32       26.4      30.22        0.6     -0.016       19.0       19.0         67       29.8         31       19.5       0.00       0.00
2:35pm            320        2.0       12.0         32       26.6      30.22        0.7     -0.015       19.0       19.0         67       29.8         31       19.5       0.00       0.00
2:40pm            278        6.0       12.0         30       26.7      30.22       -0.6     -0.013       19.0       19.0         67       29.8         30       19.5       0.00       0.00
2:45pm            324        5.0       12.0         30       26.6      30.23       -0.6      0.002       19.0       19.0         67       29.8         29       19.5       0.00       0.00
2:50pm            282        3.0       12.0         30       26.6      30.23       -0.6      0.002       19.0       19.0         67       29.8         29       19.5       0.00       0.00
2:55pm            273        3.0       12.0         29       26.6      30.23       -1.4      0.002       19.0       19.0         67       29.8         29       19.5       0.00       0.00
3:00pm            276        1.0       12.0         30       26.7      30.22       -0.6     -0.007       19.0       19.0         67       29.8         29       19.5       0.00       0.00
3:05pm            313        2.0        8.0         31       26.7      30.22        0.1     -0.006       19.0       19.0         67       29.8         29       19.5       0.00       0.00
3:10pm            265        2.0        8.0         31       26.6      30.22        0.1     -0.006       19.0       19.0         67       29.8         29       19.5       0.00       0.00
3:15pm            300        3.0        8.0         31       26.7      30.24        0.1      0.015       19.0       19.0         67       29.8         29       19.5       0.00       0.00
3:20pm            279        1.0        8.0         31       26.9      30.24        0.3      0.014       19.0       19.0         67       29.8         29       19.5       0.00       0.00
3:25pm            307        3.0        8.0         32       27.0      30.24        1.1      0.013       19.0       19.0         67       29.8         29       19.5       0.00       0.00
3:30pm            289        2.0       12.0         31       26.7      30.23        0.1      0.001       19.0       19.0         67       29.8         29       19.5       0.00       0.00
3:35pm            313        1.0       12.0         31       26.9      30.23        0.3      0.001       19.0       19.0         67       29.8         29       19.5       0.00       0.00
3:40pm            288        2.0       12.0         33       27.2      30.23        1.9      0.001       19.0       19.0         67       29.8         29       19.5       0.00       0.00
3:45pm            285        2.0       12.0         31       27.3      30.24        0.7      0.012       19.0       19.0         67       29.8         29       19.5       0.00       0.00
3:50pm            266        5.0       13.0         31       27.5      30.24        0.8      0.011       19.0       19.0         67       29.8         29       19.5       0.00       0.00
3:55pm            269        6.0       13.0         31       27.3      30.24        0.7      0.010       19.0       19.0         67       29.8         29       19.5       0.00       0.00
4:00pm            271        1.0       13.0         31       27.3      30.24        0.7      0.005       19.0       19.0         67       29.8         29       19.5       0.00       0.00
4:05pm            313        2.0        7.0         32       27.5      30.24        1.5      0.005       19.0       19.0         67       29.8         29       19.5       0.00       0.00
4:10pm            319        6.0        7.0         32       27.5      30.24        1.5      0.004       19.0       19.0         67       29.8         29       19.5       0.00       0.00
4:15pm            258        0.0        7.0         31       27.5      30.22        0.8     -0.010       19.0       19.0         67       29.8         29       19.5       0.00       0.00
4:20pm            323        2.0        8.0         32       27.5      30.22        1.5     -0.009       19.0       19.0         67       29.8         29       19.5       0.00       0.00
4:25pm            313        4.0        8.0         32       27.6      30.22        1.6     -0.008       19.0       19.0         67       29.8         29       19.5       0.00       0.00
4:30pm            282        1.0        8.0         32       27.5      30.21        1.5     -0.019       19.0       19.0         67       29.8         29       19.5       0.00       0.00
4:35pm            303        0.0        8.0         32       27.6      30.21        1.6     -0.018       19.0       19.0         67       29.8         29       19.5       0.00       0.00
4:40pm            324        0.0        8.0         32       27.6      30.21        1.6     -0.016       19.0       19.0         67       29.8         29       19.5       0.00       0.00
4:45pm            320        1.0        8.0         31       27.6      30.22        0.9     -0.004       19.0       19.0         67       29.8         29       19.5       0.00       0.00
4:50pm            312        1.0        8.0         32       27.6      30.22        1.6     -0.004       19.0       19.0         67       29.8         29       19.5       0.00       0.00
4:55pm            288        2.0        8.0         33       27.6      30.22        2.3     -0.004       19.0       19.0         67       29.8         29       19.5       0.00       0.00
5:00pm            288        0.0        8.0         34       27.6      30.22        2.9     -0.005       19.0       19.0         67       29.8         29       19.5       0.00       0.00
5:05pm            286        0.0        3.0         33       27.8      30.22        2.4     -0.005       19.0       19.0         67       29.8         29       19.5       0.00       0.00
5:10pm            288        0.0        3.0         34       27.8      30.22        3.1     -0.005       19.0       19.0         67       29.8         29       19.5       0.00       0.00
5:15pm            266        1.0        9.0         33       27.8      30.21        2.4     -0.011       19.0       19.0         67       29.8         29       19.5       0.00       0.00
5:20pm            312        0.0        9.0         34       27.9      30.21        3.2     -0.010       19.0       19.0         67       29.8         29       19.5       0.00       0.00
5:25pm            259        0.0        9.0         32       27.9      30.21        1.9     -0.009       19.0       19.0         67       29.8         29       19.5       0.00       0.00
5:30pm            261        2.0        9.0         33       28.1      30.24        2.7      0.015       19.0       19.0         67       29.8         29       19.5       0.00       0.00
5:35pm            279        1.0        9.0         32       27.9      30.24        1.9      0.014       19.0       19.0         67       29.8         29       19.5       0.00       0.00
5:40pm            290        2.0        9.0         33       27.9      30.24        2.5      0.013       19.0       19.0         67       29.8         29       19.5       0.00       0.00
5:45pm            283        3.0        9.0         33       27.9      30.25        2.5      0.026       19.0       19.0         67       29.8         29       19.5       0.00       0.00
5:50pm            269        2.0        9.0         33       27.9      30.25        2.5      0.024       19.0       19.0         67       29.8         29       19.5       0.00       0.00
5:55pm            280        2.0        9.0         33       27.9      30.25        2.5      0.022       19.0       19.0         67       29.8         29       19.5       0.00       0.00
6:00pm            282        0.0        9.0         34       27.8      30.27        3.1      0.036       19.0       19.0         67       29.8         29       19.5       0.00       0.00
6:05pm            280        0.0        5.0         34       27.8      30.27        3.1      0.033       19.0       19.0         67       29.8         29       19.5       0.00       0.00
6:10pm            280        0.0        5.0         34       27.8      30.27        3.1      0.031       19.0       19.0         67       29.8         29       19.5       0.00       0.00
6:15pm            280        0.0        5.0         35       27.8      30.28        3.7      0.043       19.0       19.0         67       29.8         29       19.5       0.00       0.00
6:20pm            280        0.0        5.0         35       27.6      30.28        3.5      0.040       19.0       19.0         67       29.8         29       19.5       0.00       0.00
6:25pm            280        0.0        5.0         35       27.6      30.28        3.5      0.036       19.0       19.0         67       29.8         29       19.5       0.00       0.00
6:30pm            280        1.0        5.0         35       27.6      30.28        3.5      0.030       19.0       19.0         67       29.8         29       19.5       0.00       0.00
6:35pm            280        0.0        5.0         36       27.6      30.28        4.2      0.027       19.0       19.0         67       29.8         29       19.5       0.00       0.00
6:40pm            280        0.0        5.0         37       27.5      30.28        4.7      0.025       19.0       19.0         67       29.8         29       19.5       0.00       0.00
6:45pm            279        0.0        5.0         37       27.5      30.29        4.7      0.029       19.0       19.0         67       29.8         29       19.5       0.00       0.00
6:50pm            280        0.0        5.0         37       27.5      30.29        4.7      0.027       19.0       19.0         67       29.8         29       19.5       0.00       0.00
6:55pm            280        0.0        5.0         38       27.3      30.29        5.1      0.025       19.0       19.0         67       29.8         29       19.5       0.00       0.00
7:00pm            280        0.0        5.0         38       27.2      30.29        5.0      0.025       19.0       19.0         67       29.8         29       19.5       0.00       0.00
7:05pm            280        0.0        0.0         38       27.0      30.29        4.8      0.023       19.0       19.0         67       29.8         29       19.5       0.00       0.00
7:10pm            280        0.0        0.0         38       26.9      30.29        4.7      0.021       19.0       19.0         67       29.8         29       19.5       0.00       0.00
7:15pm            280        0.0        0.0         40       26.7      30.27        5.6      0.004       19.0       19.0         67       29.8         29       19.5       0.00       0.00
7:20pm            280        0.0        0.0         40       26.6      30.27        5.5      0.004       19.0       19.0         67       29.8         29       19.5       0.00       0.00
7:25pm            280        0.0        0.0         43       26.6      30.27        7.1      0.004       19.0       19.0         67       29.8         29       19.5       0.00       0.00
7:30pm            280        0.0        0.0         41       26.4      30.30        5.9      0.034       19.0       19.0         67       29.8         29       19.5       0.00       0.00
7:35pm            280        0.0        0.0         43       26.4      30.30        6.9      0.031       19.0       19.0         67       29.8         29       19.5       0.00       0.00
7:40pm            280        0.0        0.0         44       26.4      30.30        7.5      0.029       19.0       19.0         67       29.8         29       19.5       0.00       0.00
7:45pm            280        0.0        0.0         45       26.3      30.31        7.9      0.034       19.0       19.0         67       29.8         29       19.5       0.00       0.00
7:50pm            280        0.0        0.0         47       26.3      30.31        8.8      0.032       19.0       19.0         67       29.8         29       19.5       0.00       0.00
7:55pm            280        0.0        0.0         46       26.3      30.31        8.3      0.029       19.0       19.0         67       29.8         29       19.5       0.00       0.00
8:00pm            280        0.0        0.0         45       26.1      30.31        7.7      0.030       19.0       19.0         67       29.8         29       19.5       0.00       0.00
8:05pm            280        0.0        0.0         45       26.1      30.31        7.7      0.027       19.0       19.0         67       29.8         29       19.5       0.00       0.00
8:10pm            280        0.0        1.0         46       26.1      30.31        8.2      0.025       19.0       19.0         67       29.8         29       19.5       0.00       0.00
8:15pm            280        0.0        1.0         48       26.0      30.30        9.0      0.009       19.0       19.0         67       29.8         29       19.5       0.00       0.00
8:20pm            280        0.0        1.0         48       25.7      30.30        8.7      0.009       19.0       19.0         67       29.8         29       19.5       0.00       0.00
8:25pm            280        0.0        1.0         49       25.6      30.30        9.1      0.008       19.0       19.0         67       29.8         29       19.5       0.00       0.00
8:30pm            280        0.0        1.0         47       25.3      30.30        7.9      0.001       19.0       19.0         67       29.8         29       19.5       0.00       0.00
8:35pm            280        0.0        1.0         47       25.0      30.30        7.6      0.001       19.0       19.0         67       29.8         29       19.5       0.00       0.00
8:40pm            280        0.0        1.0         46       24.8      30.30        7.0      0.001       19.0       19.0         67       29.8         29       19.5       0.00       0.00
8:45pm            280        0.0        1.0         47       24.5      30.32        7.2      0.023       19.0       19.0         67       29.8         29       19.5       0.00       0.00
8:50pm            280        0.0        1.0         48       24.4      30.32        7.5      0.021       19.0       19.0         67       29.8         29       19.5       0.00       0.00
8:55pm            280        0.0        1.0         49       24.2      30.32        7.8      0.019       19.0       19.0         67       29.8         29       19.5       0.00       0.00
9:00pm            280        0.0        1.0         51       24.1      30.34        8.6      0.037       19.0       19.0         67       29.8         29       19.5       0.00       0.00
9:05pm            280        0.0        0.0         51       23.9      30.34        8.4      0.034       19.0       19.0         67       29.8         29       19.5       0.00       0.00
9:10pm            280        0.0        0.0         50       23.8      30.34        7.9      0.032       19.0       19.0         67       29.8         29       19.5       0.00       0.00
9:15pm            280        0.0        0.0         51       23.8      30.32        8.3      0.016       19.0       19.0         67       29.8         29       19.5       0.00       0.00
9:20pm            280        0.0        0.0         51       23.8      30.32        8.3      0.015       19.0       19.0         67       29.8         29       19.5       0.00       0.00
9:25pm            280        0.0        0.0         50       23.8      30.32        7.9      0.014       19.0       19.0         67       29.8         29       19.5       0.00       0.00
9:30pm            280        0.0        0.0         51       23.8      30.33        8.3      0.022       19.0       19.0         67       29.8         29       19.5       0.00       0.00
9:35pm            280        0.0        0.0         49       23.8      30.33        7.4      0.020       19.0       19.0         67       29.8         29       19.5       0.00       0.00
9:40pm            280        0.0        2.0         49       23.8      30.33        7.4      0.018       19.0       19.0         67       29.8         29       19.5       0.00       0.00
9:45pm            280        5.0       10.0         47       24.1      30.34        6.8      0.029       19.0       19.0         67       29.8         29       19.5       0.00       0.00
9:50pm            282        0.0       10.0         45       24.5      30.34        6.2      0.026       19.0       19.0         67       29.8         29       19.5       0.00       0.00
9:55pm            269        0.0       10.0         44       24.8      30.34        6.0      0.024       19.0       19.0         67       29.8         29       19.5       0.00       0.00
10:00pm           272        1.0       10.0         43       25.1      30.35        5.8      0.027       19.0       19.0         67       29.8         29       19.5       0.00       0.00
10:05pm           272        1.0        5.0         42       25.4      30.35        5.5      0.025       19.0       19.0         67       29.8         29       19.5       0.00       0.00
10:10pm           272        1.0        5.0         42       25.4      30.35        5.5      0.023       19.0       19.0         67       29.8         29       19.5       0.00       0.00
10:15pm           266        2.0        7.0         41       25.4      30.36        5.0      0.034       19.0       19.0         67       29.8         29       19.5       0.00       0.00
10:20pm           269        0.0        7.0         41       25.4      30.36        5.0      0.031       19.0       19.0         67       29.8         29       19.5       0.00       0.00
10:25pm           279        2.0        7.0         41       25.4      30.36        5.0      0.029       19.0       19.0         67       29.8         29       19.5       0.00       0.00
10:30pm           240        4.0        8.0         39       25.4      30.36        3.9      0.027       19.0       19.0         67       29.8         29       19.5       0.00       0.00
10:35pm           272        4.0        8.0         38       25.4      30.36        3.3      0.025       19.0       19.0         67       29.8         29       19.5       0.00       0.00
10:40pm           259        2.0        8.0         38       25.4      30.36        3.3      0.023       19.0       19.0         67       29.8         29       19.5       0.00       0.00
10:45pm           264        6.0        8.0         37       25.3      30.37        2.7      0.022       19.0       19.0         67       29.8         29       19.5       0.00       0.00
10:50pm           268        0.0        8.0         36       25.1      30.37        1.9      0.021       19.0       19.0         67       29.8         29       19.5       0.00       0.00
10:55pm           280        5.0        8.0         36       25.0      30.37        1.8      0.019       19.0       19.0         67       29.8         29       19.5       0.00       0.00
11:00pm           276        0.0        8.0         36       24.8      30.36        1.6      0.011       19.0       19.0         67       29.8         29       19.5       0.00       0.00
11:05pm           278        0.0        3.0         37       24.7      30.36        2.1      0.010       19.0       19.0         67       29.8         29       19.5       0.00       0.00
11:10pm           275        1.0        6.0         37       24.4      30.36        1.9      0.009       19.0       19.0         67       29.8         29       19.5       0.00       0.00
11:15pm           273        0.0        6.0         38       24.1      30.36        2.2      0.010       19.0       19.0         67       29.8         29       19.5       0.00       0.00
11:20pm           266        2.0        6.0         38       23.9      30.36        2.0      0.009       19.0       19.0         67       29.8         29       19.5       0.00       0.00
11:25pm           289        0.0        6.0         39       23.8      30.36        2.5      0.009       19.0       19.0         67       29.8         29       19.5       0.00       0.00
11:30pm           288        0.0        6.0         39       23.8      30.36        2.5      0.004       19.0       19.0         67       29.8         29       19.5       0.00       0.00
11:35pm           333        0.0        6.0         39       23.5      30.36        2.2      0.004       19.0       19.0         67       29.8         29       19.5       0.00       0.00
11:40pm           331        0.0        6.0         41       23.3      30.36        3.1      0.003       19.0       19.0         67       29.8         29       19.5       0.00       0.00
11:45pm           330        0.0        6.0         41       23.2      30.37        3.0      0.012       19.0       19.0         67       29.8         29       19.5       0.00       0.00
11:50pm           306        2.0        6.0         41       23.2      30.37        3.0      0.011       19.0       19.0         67       29.8         29       19.5       0.00       0.00
11:55pm           304        1.0        6.0         41       23.0      30.37        2.8      0.010       19.0       19.0         67       29.8         29       19.5       0.00       0.00


Yesterday's Data File

3/3/15
Time         Wind Dir   Wind Spd  Wind Gust   Humidity       Temp  Raw Barom  Dew Point Barom Rate Wind Spd H WindGust H Humidity H Temp Out H Humidity L Temp Out L  DailyRain   24HrRain
                            mph        mph          %         F         in         F      in/hr        mph        mph          %         F          %         F         in         in
12:00am            80        5.0       13.0         69       34.4      29.90       25.3     -0.048       13.0       13.0         69       34.4         69       34.4       0.00       0.00
12:05am            88       10.0       10.0         70       34.4      29.90       25.6     -0.045       13.0       13.0         70       34.4         69       34.4       0.00       0.00
12:10am            60        2.0       12.0         70       34.4      29.90       25.6     -0.041       13.0       13.0         70       34.4         69       34.4       0.00       0.00
12:15am            94        6.0       12.0         71       34.4      29.90       26.0     -0.040       13.0       13.0         71       34.4         69       34.4       0.00       0.00
12:20am            90        3.0       12.0         72       34.4      29.90       26.3     -0.037       13.0       13.0         72       34.4         69       34.4       0.00       0.00
12:25am           110        8.0       12.0         73       34.4      29.90       26.7     -0.034       13.0       13.0         73       34.4         69       34.4       0.00       0.00
12:30am            59        3.0       12.0         73       34.4      29.86       26.7     -0.073       13.0       13.0         73       34.4         69       34.4       0.00       0.00
12:35am            80        5.0       12.0         74       34.3      29.86       26.9     -0.067       13.0       13.0         74       34.4         69       34.3       0.00       0.00
12:40am            66        6.0       14.0         75       34.3      29.86       27.2     -0.062       14.0       14.0         75       34.4         69       34.3       0.00       0.00
12:45am            84        2.0       14.0         76       34.3      29.88       27.5     -0.033       14.0       14.0         76       34.4         69       34.3       0.00       0.00
12:50am            66        1.0       14.0         76       34.3      29.88       27.5     -0.031       14.0       14.0         76       34.4         69       34.3       0.00       0.00
12:55am            84        2.0       14.0         77       34.3      29.88       27.9     -0.028       14.0       14.0         77       34.4         69       34.3       0.00       0.00
1:00am             70        8.0       14.0         78       34.1      29.86       28.0     -0.045       14.0       14.0         78       34.4         69       34.1       0.00       0.00
1:05am             77        8.0       12.0         79       34.0      29.86       28.2     -0.041       14.0       14.0         79       34.4         69       34.0       0.00       0.00
1:10am             79        2.0       12.0         80       34.0      29.86       28.5     -0.038       14.0       14.0         80       34.4         69       34.0       0.00       0.00
1:15am             80        1.0       12.0         80       33.8      29.87       28.3     -0.024       14.0       14.0         80       34.4         69       33.8       0.00       0.00
1:20am             79        1.0       12.0         81       33.8      29.87       28.6     -0.022       14.0       14.0         81       34.4         69       33.8       0.00       0.00
1:25am             79        3.0       12.0         82       33.8      29.87       28.9     -0.020       14.0       14.0         82       34.4         69       33.8       0.00       0.00
1:30am             70        2.0       12.0         83       33.7      29.86       29.1     -0.034       14.0       14.0         83       34.4         69       33.7       0.00       0.00
1:35am             69        5.0       12.0         83       33.5      29.86       28.9     -0.032       14.0       14.0         83       34.4         69       33.5       0.00       0.00
1:40am             69        2.0       12.0         84       33.4      29.86       29.1     -0.029       14.0       14.0         84       34.4         69       33.4       0.00       0.00
1:45am             50        1.0       12.0         85       33.4      29.84       29.4     -0.047       14.0       14.0         85       34.4         69       33.4       0.00       0.00
1:50am             57        6.0       12.0         85       33.2      29.84       29.2     -0.043       14.0       14.0         85       34.4         69       33.2       0.00       0.00
1:55am             57        2.0       12.0         86       33.2      29.84       29.5     -0.039       14.0       14.0         86       34.4         69       33.2       0.00       0.00
2:00am             66        3.0       12.0         86       33.2      29.83       29.5     -0.045       14.0       14.0         86       34.4         69       33.2       0.00       0.00
2:05am             56        2.0       11.0         86       33.1      29.83       29.4     -0.042       14.0       14.0         86       34.4         69       33.1       0.00       0.00
2:10am             57        3.0       11.0         87       33.1      29.83       29.7     -0.038       14.0       14.0         87       34.4         69       33.1       0.00       0.00
2:15am             55        6.0       11.0         87       33.2      29.83       29.8     -0.030       14.0       14.0         87       34.4         69       33.1       0.00       0.00
2:20am             57        6.0       11.0         88       33.2      29.83       30.0     -0.028       14.0       14.0         88       34.4         69       33.1       0.00       0.00
2:25am             57        3.0       11.0         88       33.1      29.83       29.9     -0.026       14.0       14.0         88       34.4         69       33.1       0.00       0.00
2:30am             60        3.0       11.0         88       33.1      29.80       29.9     -0.053       14.0       14.0         88       34.4         69       33.1       0.00       0.00
2:35am             57        5.0       11.0         88       33.1      29.80       29.9     -0.049       14.0       14.0         88       34.4         69       33.1       0.00       0.00
2:40am             53        5.0       12.0         89       33.1      29.80       30.2     -0.045       14.0       14.0         89       34.4         69       33.1       0.00       0.00
2:45am             59        3.0       12.0         89       33.1      29.79       30.2     -0.056       14.0       14.0         89       34.4         69       33.1       0.00       0.00
2:50am             84        5.0       12.0         89       33.2      29.79       30.3     -0.052       14.0       14.0         89       34.4         69       33.1       0.00       0.00
2:55am             70        8.0       12.0         89       33.2      29.79       30.3     -0.047       14.0       14.0         89       34.4         69       33.1       0.00       0.00
3:00am             91        4.0       12.0         89       33.4      29.78       30.5     -0.047       14.0       14.0         89       34.4         69       33.1       0.00       0.00
3:05am             93        2.0       11.0         89       33.4      29.78       30.5     -0.043       14.0       14.0         89       34.4         69       33.1       0.00       0.00
3:10am             69        4.0       11.0         90       33.5      29.78       30.9     -0.039       14.0       14.0         90       34.4         69       33.1       0.00       0.00
3:15am             72        5.0       11.0         90       33.5      29.77       30.9     -0.052       14.0       14.0         90       34.4         69       33.1       0.00       0.00
3:20am             87        6.0       11.0         90       33.7      29.77       31.1     -0.048       14.0       14.0         90       34.4         69       33.1       0.00       0.00
3:25am             64        2.0       11.0         90       33.7      29.77       31.1     -0.044       14.0       14.0         90       34.4         69       33.1       0.00       0.00
3:30am             80        7.0       11.0         90       33.7      29.74       31.1     -0.065       14.0       14.0         90       34.4         69       33.1       0.00       0.00
3:35am             84        5.0       12.0         90       33.8      29.74       31.2     -0.060       14.0       14.0         90       34.4         69       33.1       0.00       0.00
3:40am             97        8.0       13.0         90       34.1      29.74       31.5     -0.055       14.0       14.0         90       34.4         69       33.1       0.00       0.00
3:45am            103        2.0       13.0         90       34.1      29.73       31.5     -0.065       14.0       14.0         90       34.4         69       33.1       0.00       0.00
3:50am             73        5.0       13.0         90       34.3      29.73       31.7     -0.059       14.0       14.0         90       34.4         69       33.1       0.00       0.00
3:55am             70        7.0       13.0         91       34.4      29.73       32.1     -0.055       14.0       14.0         91       34.4         69       33.1       0.00       0.00
4:00am             84        5.0       17.0         91       34.7      29.72       32.3     -0.062       17.0       17.0         91       34.7         69       33.1       0.00       0.00
4:05am             66        5.0       14.0         91       34.7      29.72       32.3     -0.057       17.0       17.0         91       34.7         69       33.1       0.00       0.00
4:10am             91       13.0       16.0         91       34.7      29.72       32.3     -0.053       17.0       17.0         91       34.7         69       33.1       0.00       0.00
4:15am             60       11.0       16.0         91       34.7      29.70       32.3     -0.068       17.0       17.0         91       34.7         69       33.1       0.00       0.00
4:20am             69        5.0       16.0         91       34.6      29.70       32.2     -0.063       17.0       17.0         91       34.7         69       33.1       0.00       0.00
4:25am             57       10.0       16.0         91       34.6      29.70       32.2     -0.058       17.0       17.0         91       34.7         69       33.1       0.00       0.00
4:30am             57       13.0       16.0         91       34.6      29.69       32.2     -0.062       17.0       17.0         91       34.7         69       33.1       0.00       0.00
4:35am             63       11.0       16.0         91       34.7      29.69       32.3     -0.057       17.0       17.0         91       34.7         69       33.1       0.00       0.00
4:40am             76        8.0       16.0         91       34.7      29.69       32.3     -0.052       17.0       17.0         91       34.7         69       33.1       0.00       0.00
4:45am             62        4.0       16.0         91       34.7      29.68       32.3     -0.057       17.0       17.0         91       34.7         69       33.1       0.00       0.00
4:50am             81        3.0       16.0         91       34.7      29.68       32.3     -0.052       17.0       17.0         91       34.7         69       33.1       0.00       0.00
4:55am             79        4.0       16.0         91       34.9      29.68       32.5     -0.048       17.0       17.0         91       34.9         69       33.1       0.00       0.00
5:00am            108        5.0       16.0         91       34.9      29.68       32.5     -0.042       17.0       17.0         91       34.9         69       33.1       0.00       0.00
5:05am             74        5.0       13.0         91       35.0      29.68       32.6     -0.039       17.0       17.0         91       35.0         69       33.1       0.00       0.00
5:10am             93        6.0       14.0         91       35.0      29.68       32.6     -0.036       17.0       17.0         91       35.0         69       33.1       0.00       0.00
5:15am             67        3.0       14.0         91       35.0      29.67       32.6     -0.048       17.0       17.0         91       35.0         69       33.1       0.00       0.00
5:20am             81        8.0       14.0         91       35.0      29.67       32.6     -0.044       17.0       17.0         91       35.0         69       33.1       0.00       0.00
5:25am             87       11.0       14.0         91       35.2      29.67       32.8     -0.040       17.0       17.0         91       35.2         69       33.1       0.00       0.00
5:30am             72        5.0       14.0         91       35.2      29.67       32.8     -0.039       17.0       17.0         91       35.2         69       33.1       0.00       0.00
5:35am            127       10.0       14.0         91       35.3      29.67       32.9     -0.036       17.0       17.0         91       35.3         69       33.1       0.00       0.00
5:40am             67        8.0       14.0         91       35.3      29.67       32.9     -0.033       17.0       17.0         91       35.3         69       33.1       0.00       0.00
5:45am             91       12.0       17.0         91       35.5      29.65       33.1     -0.044       17.0       17.0         91       35.5         69       33.1       0.00       0.00
5:50am             88        2.0       17.0         91       35.6      29.65       33.2     -0.041       17.0       17.0         91       35.6         69       33.1       0.00       0.00
5:55am            149        2.0       17.0         91       35.8      29.65       33.4     -0.038       17.0       17.0         91       35.8         69       33.1       0.00       0.00
6:00am            110        1.0       17.0         91       35.9      29.66       33.5     -0.026       17.0       17.0         91       35.9         69       33.1       0.00       0.00
6:05am             80        2.0       15.0         91       36.2      29.66       33.8     -0.024       17.0       17.0         91       36.2         69       33.1       0.00       0.00
6:10am            104       11.0       15.0         91       36.3      29.66       33.9     -0.022       17.0       17.0         91       36.3         69       33.1       0.00       0.00
6:15am            125        4.0       15.0         91       36.3      29.67       33.9     -0.011       17.0       17.0         91       36.3         69       33.1       0.00       0.00
6:20am            114        3.0       15.0         91       36.3      29.67       33.9     -0.010       17.0       17.0         91       36.3         69       33.1       0.00       0.00
6:25am            105        4.0       15.0         91       36.3      29.67       33.9     -0.009       17.0       17.0         91       36.3         69       33.1       0.00       0.00
6:30am            131        1.0       15.0         91       36.5      29.67       34.1     -0.013       17.0       17.0         91       36.5         69       33.1       0.00       0.00
6:35am            100        3.0       15.0         91       36.6      29.67       34.2     -0.012       17.0       17.0         91       36.6         69       33.1       0.00       0.00
6:40am            134        0.0       15.0         91       36.6      29.67       34.2     -0.011       17.0       17.0         91       36.6         69       33.1       0.00       0.00
6:45am            122        3.0       15.0         92       36.8      29.66       34.7     -0.018       17.0       17.0         92       36.8         69       33.1       0.00       0.00
6:50am            158        2.0       15.0         92       36.9      29.66       34.8     -0.016       17.0       17.0         92       36.9         69       33.1       0.00       0.00
6:55am             77       11.0       15.0         92       37.2      29.66       35.1     -0.015       17.0       17.0         92       37.2         69       33.1       0.00       0.00
7:00am            112        2.0       15.0         92       37.3      29.65       35.2     -0.022       17.0       17.0         92       37.3         69       33.1       0.00       0.00
7:05am            112        2.0       10.0         92       37.5      29.65       35.4     -0.020       17.0       17.0         92       37.5         69       33.1       0.00       0.00
7:10am             81        5.0       11.0         92       37.6      29.65       35.5     -0.018       17.0       17.0         92       37.6         69       33.1       0.00       0.00
7:15am            145        9.0       14.0         92       37.8      29.64       35.7     -0.022       17.0       17.0         92       37.8         69       33.1       0.00       0.00
7:20am             90        5.0       14.0         92       37.8      29.64       35.7     -0.020       17.0       17.0         92       37.8         69       33.1       0.00       0.00
7:25am             94        4.0       14.0         92       37.9      29.64       35.8     -0.018       17.0       17.0         92       37.9         69       33.1       0.00       0.00
7:30am            117        6.0       14.0         92       37.9      29.63       35.8     -0.034       17.0       17.0         92       37.9         69       33.1       0.00       0.00
7:35am             80        8.0       15.0         92       38.0      29.63       35.9     -0.031       17.0       17.0         92       38.0         69       33.1       0.00       0.00
7:40am            104        8.0       17.0         92       38.2      29.63       36.1     -0.029       17.0       17.0         92       38.2         69       33.1       0.00       0.00
7:45am            112        7.0       17.0         92       38.3      29.62       36.2     -0.031       17.0       17.0         92       38.3         69       33.1       0.00       0.00
7:50am            112        6.0       17.0         92       38.3      29.62       36.2     -0.029       17.0       17.0         92       38.3         69       33.1       0.00       0.00
7:55am            108        5.0       17.0         92       38.6      29.62       36.5     -0.026       17.0       17.0         92       38.6         69       33.1       0.00       0.00
8:00am            122        8.0       17.0         92       38.8      29.62       36.7     -0.028       17.0       17.0         92       38.8         69       33.1       0.00       0.00
8:05am            135        6.0       17.0         92       39.1      29.62       37.0     -0.026       17.0       17.0         92       39.1         69       33.1       0.00       0.00
8:10am             93        7.0       17.0         92       39.2      29.62       37.1     -0.024       17.0       17.0         92       39.2         69       33.1       0.00       0.00
8:15am             93        6.0       17.0         92       39.3      29.62       37.2     -0.016       17.0       17.0         92       39.3         69       33.1       0.00       0.00
8:20am            108       10.0       17.0         92       39.5      29.62       37.4     -0.015       17.0       17.0         92       39.5         69       33.1       0.00       0.00
8:25am            118        6.0       18.0         92       39.6      29.62       37.5     -0.014       18.0       18.0         92       39.6         69       33.1       0.00       0.00
8:30am            108       15.0       22.0         92       39.8      29.62       37.7     -0.015       22.0       22.0         92       39.8         69       33.1       0.00       0.00
8:35am            117        7.0       22.0         92       40.1      29.62       38.0     -0.014       22.0       22.0         92       40.1         69       33.1       0.00       0.00
8:40am            114       11.0       22.0         92       40.2      29.62       38.1     -0.013       22.0       22.0         92       40.2         69       33.1       0.00       0.00
8:45am            118        7.0       22.0         92       40.2      29.63       38.1     -0.003       22.0       22.0         92       40.2         69       33.1       0.00       0.00
8:50am            136        5.0       22.0         92       40.3      29.63       38.2     -0.003       22.0       22.0         92       40.3         69       33.1       0.00       0.00
8:55am            132        8.0       22.0         92       40.3      29.63       38.2     -0.003       22.0       22.0         92       40.3         69       33.1       0.00       0.00
9:00am            111        5.0       22.0         92       40.3      29.63       38.2      0.001       22.0       22.0         92       40.3         69       33.1       0.00       0.00
9:05am             97       13.0       16.0         92       40.5      29.63       38.4      0.001       22.0       22.0         92       40.5         69       33.1       0.00       0.00
9:10am            112        4.0       17.0         91       40.5      29.63       38.1      0.001       22.0       22.0         92       40.5         69       33.1       0.00       0.00
9:15am            141        6.0       17.0         91       40.5      29.65       38.1      0.012       22.0       22.0         92       40.5         69       33.1       0.00       0.00
9:20am            127        5.0       17.0         91       40.6      29.65       38.2      0.011       22.0       22.0         92       40.6         69       33.1       0.00       0.00
9:25am            132        5.0       17.0         91       40.6      29.65       38.2      0.010       22.0       22.0         92       40.6         69       33.1       0.00       0.00
9:30am            134        6.0       17.0         91       40.8      29.66       38.4      0.021       22.0       22.0         92       40.8         69       33.1       0.00       0.00
9:35am            105        7.0       17.0         91       40.9      29.66       38.5      0.019       22.0       22.0         92       40.9         69       33.1       0.00       0.00
9:40am            118        7.0       17.0         90       41.1      29.66       38.4      0.018       22.0       22.0         92       41.1         69       33.1       0.00       0.00
9:45am            144       12.0       17.0         90       41.2      29.66       38.5      0.019       22.0       22.0         92       41.2         69       33.1       0.00       0.00
9:50am             96        5.0       17.0         89       41.3      29.66       38.3      0.018       22.0       22.0         92       41.3         69       33.1       0.00       0.00
9:55am            129       10.0       17.0         89       41.5      29.66       38.5      0.016       22.0       22.0         92       41.5         69       33.1       0.00       0.00
10:00am           120        9.0       18.0         89       41.5      29.65       38.5      0.007       22.0       22.0         92       41.5         69       33.1       0.00       0.00
10:05am           135        6.0       11.0         88       41.6      29.65       38.3      0.007       22.0       22.0         92       41.6         69       33.1       0.00       0.00
10:10am           160       14.0       18.0         88       41.8      29.65       38.5      0.006       22.0       22.0         92       41.8         69       33.1       0.00       0.00
10:15am           120        7.0       18.0         88       41.9      29.66       38.6      0.012       22.0       22.0         92       41.9         69       33.1       0.00       0.00
10:20am           166        5.0       18.0         87       42.1      29.66       38.5      0.011       22.0       22.0         92       42.1         69       33.1       0.00       0.00
10:25am           121        7.0       18.0         86       42.1      29.66       38.2      0.010       22.0       22.0         92       42.1         69       33.1       0.00       0.00
10:30am           127        6.0       18.0         86       42.2      29.67       38.3      0.021       22.0       22.0         92       42.2         69       33.1       0.00       0.00
10:35am           132        5.0       18.0         86       42.3      29.67       38.4      0.019       22.0       22.0         92       42.3         69       33.1       0.00       0.00
10:40am           131        5.0       18.0         86       42.5      29.67       38.6      0.018       22.0       22.0         92       42.5         69       33.1       0.00       0.00
10:45am           139        6.0       18.0         85       42.8      29.67       38.6      0.015       22.0       22.0         92       42.8         69       33.1       0.00       0.00
10:50am           135        9.0       18.0         85       43.1      29.67       38.9      0.014       22.0       22.0         92       43.1         69       33.1       0.00       0.00
10:55am           160        5.0       18.0         84       43.3      29.67       38.8      0.013       22.0       22.0         92       43.3         69       33.1       0.00       0.00
11:00am           121        3.0       18.0         83       43.6      29.67       38.8      0.010       22.0       22.0         92       43.6         69       33.1       0.00       0.00
11:05am           134        5.0        9.0         82       43.9      29.67       38.8      0.009       22.0       22.0         92       43.9         69       33.1       0.00       0.00
11:10am           141        5.0       13.0         82       44.2      29.67       39.1      0.008       22.0       22.0         92       44.2         69       33.1       0.00       0.00
11:15am           115        6.0       13.0         81       44.2      29.68       38.7      0.024       22.0       22.0         92       44.2         69       33.1       0.00       0.00
11:20am           148        8.0       13.0         80       44.3      29.68       38.5      0.022       22.0       22.0         92       44.3         69       33.1       0.00       0.00
11:25am           136        2.0       13.0         80       44.5      29.68       38.7      0.021       22.0       22.0         92       44.5         69       33.1       0.00       0.00
11:30am           127        7.0       13.0         79       44.6      29.68       38.5      0.018       22.0       22.0         92       44.6         69       33.1       0.00       0.00
11:35am           122        7.0       13.0         79       44.6      29.68       38.5      0.017       22.0       22.0         92       44.6         69       33.1       0.00       0.00
11:40am           107        8.0       13.0         78       44.9      29.68       38.5      0.015       22.0       22.0         92       44.9         69       33.1       0.00       0.00
11:45am           131        7.0       13.0         78       45.1      29.69       38.7      0.017       22.0       22.0         92       45.1         69       33.1       0.00       0.00
11:50am           149        8.0       14.0         77       45.4      29.69       38.6      0.016       22.0       22.0         92       45.4         69       33.1       0.00       0.00
11:55am           136        9.0       14.0         77       45.5      29.69       38.7      0.014       22.0       22.0         92       45.5         69       33.1       0.00       0.00
12:00pm           156        5.0       14.0         76       45.8      29.68       38.7      0.011       22.0       22.0         92       45.8         69       33.1       0.00       0.00
12:05pm           120        3.0       11.0         76       46.0      29.68       38.9      0.010       22.0       22.0         92       46.0         69       33.1       0.00       0.00
12:10pm           132        3.0       11.0         75       46.1      29.68       38.6      0.010       22.0       22.0         92       46.1         69       33.1       0.00       0.00
12:15pm           151        0.0       11.0         75       46.1      29.69       38.6      0.011       22.0       22.0         92       46.1         69       33.1       0.00       0.00
12:20pm           146        2.0       11.0         75       46.2      29.69       38.7      0.010       22.0       22.0         92       46.2         69       33.1       0.00       0.00
12:25pm           151        1.0       11.0         74       46.2      29.69       38.4      0.009       22.0       22.0         92       46.2         69       33.1       0.00       0.00
12:30pm           158        6.0       11.0         74       46.2      29.69       38.4      0.009       22.0       22.0         92       46.2         69       33.1       0.00       0.00
12:35pm           152        8.0       11.0         73       46.4      29.69       38.2      0.009       22.0       22.0         92       46.4         69       33.1       0.00       0.00
12:40pm           155        6.0       11.0         73       46.4      29.69       38.2      0.008       22.0       22.0         92       46.4         69       33.1       0.00       0.00
12:45pm           122        5.0       11.0         73       46.5      29.70       38.3      0.022       22.0       22.0         92       46.5         69       33.1       0.00       0.00
12:50pm           165        2.0       12.0         71       46.7      29.70       37.8      0.020       22.0       22.0         92       46.7         69       33.1       0.00       0.00
12:55pm           160        2.0       12.0         71       46.8      29.70       37.9      0.019       22.0       22.0         92       46.8         69       33.1       0.00       0.00
1:00pm            248        5.0       12.0         70       47.0      29.69       37.7      0.009       22.0       22.0         92       47.0         69       33.1       0.00       0.00
1:05pm            232        0.0        6.0         70       47.0      29.69       37.7      0.009       22.0       22.0         92       47.0         69       33.1       0.00       0.00
1:10pm            156        2.0        7.0         69       47.0      29.69       37.4      0.008       22.0       22.0         92       47.0         69       33.1       0.00       0.00
1:15pm            259        4.0        7.0         68       47.0      29.69       37.0      0.003       22.0       22.0         92       47.0         68       33.1       0.00       0.00
1:20pm            232        1.0       12.0         67       46.5      29.69       36.1      0.003       22.0       22.0         92       47.0         67       33.1       0.00       0.00
1:25pm            175        3.0       12.0         67       46.2      29.69       35.9      0.003       22.0       22.0         92       47.0         67       33.1       0.00       0.00
1:30pm            249        2.0       12.0         67       46.0      29.70       35.7      0.010       22.0       22.0         92       47.0         67       33.1       0.00       0.00
1:35pm            254        2.0       12.0         67       45.8      29.70       35.5      0.010       22.0       22.0         92       47.0         67       33.1       0.00       0.00
1:40pm            251        1.0       12.0         67       45.7      29.70       35.4      0.009       22.0       22.0         92       47.0         67       33.1       0.00       0.00
1:45pm            256        4.0       12.0         67       45.7      29.70       35.4      0.011       22.0       22.0         92       47.0         67       33.1       0.00       0.00
1:50pm            235        5.0       13.0         67       45.2      29.70       34.9      0.010       22.0       22.0         92       47.0         67       33.1       0.00       0.00
1:55pm            255        3.0       13.0         67       44.8      29.70       34.5      0.009       22.0       22.0         92       47.0         67       33.1       0.00       0.00
2:00pm            248        0.0       13.0         67       44.5      29.70       34.2      0.006       22.0       22.0         92       47.0         67       33.1       0.00       0.00
2:05pm            244        6.0        7.0         67       44.5      29.70       34.2      0.005       22.0       22.0         92       47.0         67       33.1       0.00       0.00
2:10pm            248        2.0        7.0         67       44.3      29.70       34.0      0.005       22.0       22.0         92       47.0         67       33.1       0.00       0.00
2:15pm            256        8.0       12.0         67       44.3      29.72       34.0      0.027       22.0       22.0         92       47.0         67       33.1       0.00       0.00
2:20pm            258        7.0       15.0         67       43.5      29.72       33.3      0.025       22.0       22.0         92       47.0         67       33.1       0.00       0.00
2:25pm            278        4.0       15.0         67       43.1      29.72       32.9      0.023       22.0       22.0         92       47.0         67       33.1       0.00       0.00
2:30pm            264        3.0       15.0         68       42.5      29.72       32.7      0.021       22.0       22.0         92       47.0         67       33.1       0.00       0.00
2:35pm            269        3.0       15.0         69       42.5      29.72       33.1      0.019       22.0       22.0         92       47.0         67       33.1       0.00       0.00
2:40pm            306        3.0       15.0         69       42.5      29.72       33.1      0.018       22.0       22.0         92       47.0         67       33.1       0.00       0.00
2:45pm            258        6.0       15.0         68       42.5      29.73       32.7      0.023       22.0       22.0         92       47.0         67       33.1       0.00       0.00
2:50pm            261        3.0       15.0         68       42.5      29.73       32.7      0.021       22.0       22.0         92       47.0         67       33.1       0.00       0.00
2:55pm            272        2.0       15.0         68       42.5      29.73       32.7      0.020       22.0       22.0         92       47.0         67       33.1       0.00       0.00
3:00pm            245        3.0       15.0         68       42.5      29.74       32.7      0.027       22.0       22.0         92       47.0         67       33.1       0.00       0.00
3:05pm            249        1.0        7.0         68       42.6      29.74       32.8      0.025       22.0       22.0         92       47.0         67       33.1       0.00       0.00
3:10pm            282        4.0        8.0         67       42.6      29.74       32.4      0.023       22.0       22.0         92       47.0         67       33.1       0.00       0.00
3:15pm            251        3.0        8.0         67       42.6      29.74       32.4      0.024       22.0       22.0         92       47.0         67       33.1       0.00       0.00
3:20pm            279        3.0        8.0         67       42.8      29.74       32.6      0.022       22.0       22.0         92       47.0         67       33.1       0.00       0.00
3:25pm            280        1.0        8.0         67       42.9      29.74       32.7      0.020       22.0       22.0         92       47.0         67       33.1       0.00       0.00
3:30pm            271        4.0       11.0         65       42.9      29.74       32.0      0.015       22.0       22.0         92       47.0         65       33.1       0.00       0.00
3:35pm            276        7.0       11.0         63       42.9      29.74       31.2      0.014       22.0       22.0         92       47.0         63       33.1       0.00       0.00
3:40pm            262        6.0       16.0         62       42.9      29.74       30.8      0.012       22.0       22.0         92       47.0         62       33.1       0.00       0.00
3:45pm            271        6.0       16.0         62       42.8      29.75       30.7      0.025       22.0       22.0         92       47.0         61       33.1       0.00       0.00
3:50pm            256        3.0       16.0         62       42.8      29.75       30.7      0.023       22.0       22.0         92       47.0         61       33.1       0.00       0.00
3:55pm            285        2.0       16.0         63       42.6      29.75       30.9      0.021       22.0       22.0         92       47.0         61       33.1       0.00       0.00
4:00pm            279        2.0       16.0         64       42.3      29.75       31.0      0.023       22.0       22.0         92       47.0         61       33.1       0.00       0.00
4:05pm            275        3.0        5.0         64       42.2      29.75       30.9      0.021       22.0       22.0         92       47.0         61       33.1       0.00       0.00
4:10pm            278        5.0       10.0         63       41.9      29.75       30.2      0.019       22.0       22.0         92       47.0         61       33.1       0.00       0.00
4:15pm            273        2.0       10.0         62       41.8      29.77       29.8      0.033       22.0       22.0         92       47.0         61       33.1       0.00       0.00
4:20pm            276        2.0       10.0         62       41.6      29.77       29.6      0.031       22.0       22.0         92       47.0         61       33.1       0.00       0.00
4:25pm            259        4.0       10.0         61       41.5      29.77       29.1      0.028       22.0       22.0         92       47.0         61       33.1       0.00       0.00
4:30pm            273        1.0       10.0         61       41.5      29.77       29.1      0.025       22.0       22.0         92       47.0         61       33.1       0.00       0.00
4:35pm            280        0.0       10.0         62       41.3      29.77       29.3      0.023       22.0       22.0         92       47.0         61       33.1       0.00       0.00
4:40pm            268        2.0       10.0         62       41.2      29.77       29.2      0.021       22.0       22.0         92       47.0         61       33.1       0.00       0.00
4:45pm            259        2.0       10.0         61       41.1      29.78       28.7      0.032       22.0       22.0         92       47.0         61       33.1       0.00       0.00
4:50pm            254        8.0       10.0         61       40.9      29.78       28.5      0.030       22.0       22.0         92       47.0         60       33.1       0.00       0.00
4:55pm            283        1.0       10.0         61       40.8      29.78       28.4      0.027       22.0       22.0         92       47.0         60       33.1       0.00       0.00
5:00pm            283        1.0       10.0         61       40.8      29.80       28.4      0.044       22.0       22.0         92       47.0         60       33.1       0.00       0.00
5:05pm            279        0.0        7.0         61       40.6      29.80       28.2      0.040       22.0       22.0         92       47.0         60       33.1       0.00       0.00
5:10pm            279        2.0        7.0         61       40.6      29.80       28.2      0.037       22.0       22.0         92       47.0         60       33.1       0.00       0.00
5:15pm            279        0.0        7.0         61       40.5      29.80       28.1      0.037       22.0       22.0         92       47.0         60       33.1       0.00       0.00
5:20pm            279        0.0        7.0         61       40.5      29.80       28.1      0.034       22.0       22.0         92       47.0         60       33.1       0.00       0.00
5:25pm            279        0.0        7.0         62       40.3      29.80       28.3      0.031       22.0       22.0         92       47.0         60       33.1       0.00       0.00
5:30pm            279        0.0        7.0         62       40.2      29.80       28.2      0.022       22.0       22.0         92       47.0         60       33.1       0.00       0.00
5:35pm            279        0.0        7.0         62       40.1      29.80       28.1      0.020       22.0       22.0         92       47.0         60       33.1       0.00       0.00
5:40pm            279        2.0        7.0         62       40.1      29.80       28.1      0.019       22.0       22.0         92       47.0         60       33.1       0.00       0.00
5:45pm            276        1.0        7.0         63       39.9      29.81       28.3      0.035       22.0       22.0         92       47.0         60       33.1       0.00       0.00
5:50pm            276        0.0        7.0         63       39.9      29.81       28.3      0.032       22.0       22.0         92       47.0         60       33.1       0.00       0.00
5:55pm            276        0.0        7.0         63       39.8      29.81       28.2      0.030       22.0       22.0         92       47.0         60       33.1       0.00       0.00
6:00pm            276        2.0        7.0         63       39.6      29.81       28.1      0.022       22.0       22.0         92       47.0         60       33.1       0.00       0.00
6:05pm            331        0.0        6.0         63       39.6      29.81       28.1      0.020       22.0       22.0         92       47.0         60       33.1       0.00       0.00
6:10pm            331        0.0        6.0         64       39.5      29.81       28.3      0.019       22.0       22.0         92       47.0         60       33.1       0.00       0.00
6:15pm            331        0.0        6.0         64       39.3      29.82       28.2      0.027       22.0       22.0         92       47.0         60       33.1       0.00       0.00
6:20pm            323        0.0        6.0         64       39.2      29.82       28.1      0.025       22.0       22.0         92       47.0         60       33.1       0.00       0.00
6:25pm            261        0.0        6.0         64       39.2      29.82       28.1      0.023       22.0       22.0         92       47.0         60       33.1       0.00       0.00
6:30pm            280        6.0        6.0         64       39.1      29.83       28.0      0.034       22.0       22.0         92       47.0         60       33.1       0.00       0.00
6:35pm            312        5.0        6.0         65       38.8      29.83       28.1      0.031       22.0       22.0         92       47.0         60       33.1       0.00       0.00
6:40pm            307        1.0        6.0         65       38.6      29.83       27.9      0.029       22.0       22.0         92       47.0         60       33.1       0.00       0.00
6:45pm            317        4.0        6.0         65       38.3      29.83       27.6      0.025       22.0       22.0         92       47.0         60       33.1       0.00       0.00
6:50pm            312        0.0        7.0         66       38.2      29.83       27.9      0.023       22.0       22.0         92       47.0         60       33.1       0.00       0.00
6:55pm            321        0.0        7.0         66       38.0      29.83       27.7      0.022       22.0       22.0         92       47.0         60       33.1       0.00       0.00
7:00pm            313        0.0        7.0         66       37.8      29.84       27.5      0.031       22.0       22.0         92       47.0         60       33.1       0.00       0.00
7:05pm            297        1.0        5.0         66       37.6      29.84       27.3      0.028       22.0       22.0         92       47.0         60       33.1       0.00       0.00
7:10pm            323        0.0        6.0         67       37.5      29.84       27.6      0.026       22.0       22.0         92       47.0         60       33.1       0.00       0.00
7:15pm            289        0.0        6.0         67       37.5      29.85       27.6      0.030       22.0       22.0         92       47.0         60       33.1       0.00       0.00
7:20pm            310        1.0        6.0         67       37.3      29.85       27.4      0.027       22.0       22.0         92       47.0         60       33.1       0.00       0.00
7:25pm            312        2.0        6.0         67       37.2      29.85       27.3      0.025       22.0       22.0         92       47.0         60       33.1       0.00       0.00
7:30pm            273        5.0        6.0         67       37.0      29.85       27.1      0.029       22.0       22.0         92       47.0         60       33.1       0.00       0.00
7:35pm            331        3.0        6.0         67       36.9      29.85       27.0      0.027       22.0       22.0         92       47.0         60       33.1       0.00       0.00
7:40pm            328        0.0        6.0         68       36.8      29.85       27.2      0.025       22.0       22.0         92       47.0         60       33.1       0.00       0.00
7:45pm            297        4.0        6.0         68       36.8      29.85       27.2      0.018       22.0       22.0         92       47.0         60       33.1       0.00       0.00
7:50pm            264        0.0        7.0         68       36.8      29.85       27.2      0.016       22.0       22.0         92       47.0         60       33.1       0.00       0.00
7:55pm            275        0.0        7.0         68       36.6      29.85       27.1      0.015       22.0       22.0         92       47.0         60       33.1       0.00       0.00
8:00pm            282        1.0        8.0         69       36.6      29.87       27.4      0.033       22.0       22.0         92       47.0         60       33.1       0.00       0.00
8:05pm            278        6.0        8.0         69       36.6      29.87       27.4      0.030       22.0       22.0         92       47.0         60       33.1       0.00       0.00
8:10pm            283        2.0        8.0         69       36.3      29.87       27.1      0.028       22.0       22.0         92       47.0         60       33.1       0.00       0.00
8:15pm            273       10.0       11.0         69       36.2      29.87       27.0      0.027       22.0       22.0         92       47.0         60       33.1       0.00       0.00
8:20pm            282        6.0       11.0         69       35.8      29.87       26.6      0.025       22.0       22.0         92       47.0         60       33.1       0.00       0.00
8:25pm            312        0.0       11.0         69       35.5      29.87       26.4      0.023       22.0       22.0         92       47.0         60       33.1       0.00       0.00
8:30pm            337        1.0       11.0         69       35.3      29.86       26.2      0.015       22.0       22.0         92       47.0         60       33.1       0.00       0.00
8:35pm            286        4.0       11.0         70       35.2      29.86       26.4      0.014       22.0       22.0         92       47.0         60       33.1       0.00       0.00
8:40pm            290        7.0       11.0         70       35.0      29.86       26.2      0.013       22.0       22.0         92       47.0         60       33.1       0.00       0.00
8:45pm            276        7.0       12.0         70       34.9      29.89       26.1      0.036       22.0       22.0         92       47.0         60       33.1       0.00       0.00
8:50pm            258        3.0       12.0         70       34.7      29.89       25.9      0.033       22.0       22.0         92       47.0         60       33.1       0.00       0.00
8:55pm            272        5.0       12.0         70       34.4      29.89       25.6      0.030       22.0       22.0         92       47.0         60       33.1       0.00       0.00
9:00pm            286        6.0       12.0         70       34.3      29.87       25.5      0.008       22.0       22.0         92       47.0         60       33.1       0.00       0.00
9:05pm            280        3.0       10.0         70       34.1      29.87       25.4      0.007       22.0       22.0         92       47.0         60       33.1       0.00       0.00
9:10pm            309        7.0       10.0         70       34.0      29.87       25.3      0.007       22.0       22.0         92       47.0         60       33.1       0.00       0.00
9:15pm            278        2.0       10.0         71       33.8      29.86       25.4      0.003       22.0       22.0         92       47.0         60       33.1       0.00       0.00
9:20pm            273        1.0       12.0         71       33.8      29.86       25.4      0.003       22.0       22.0         92       47.0         60       33.1       0.00       0.00
9:25pm            278        2.0       12.0         71       33.8      29.86       25.4      0.003       22.0       22.0         92       47.0         60       33.1       0.00       0.00
9:30pm            280        3.0       12.0         71       33.7      29.90       25.3      0.034       22.0       22.0         92       47.0         60       33.1       0.00       0.00
9:35pm            269        1.0       12.0         71       33.7      29.90       25.3      0.031       22.0       22.0         92       47.0         60       33.1       0.00       0.00
9:40pm            279        1.0       12.0         71       33.7      29.90       25.3      0.029       22.0       22.0         92       47.0         60       33.1       0.00       0.00
9:45pm            278        2.0       12.0         70       33.5      29.89       24.8      0.015       22.0       22.0         92       47.0         60       33.1       0.00       0.00
9:50pm            299        5.0       12.0         70       33.4      29.89       24.7      0.014       22.0       22.0         92       47.0         60       33.1       0.00       0.00
9:55pm            252       10.0       12.0         70       33.2      29.89       24.5      0.012       22.0       22.0         92       47.0         60       33.1       0.00       0.00
10:00pm           289        5.0       12.0         70       33.2      29.89       24.5      0.011       22.0       22.0         92       47.0         60       33.1       0.00       0.00
10:05pm           273        5.0        8.0         70       33.1      29.89       24.4      0.011       22.0       22.0         92       47.0         60       33.1       0.00       0.00
10:10pm           275        5.0        8.0         70       33.1      29.89       24.4      0.010       22.0       22.0         92       47.0         60       33.1       0.00       0.00
10:15pm           271        8.0        8.0         70       33.1      29.90       24.4      0.020       22.0       22.0         92       47.0         60       33.1       0.00       0.00
10:20pm           269        2.0        8.0         70       32.9      29.90       24.2      0.018       22.0       22.0         92       47.0         60       32.9       0.00       0.00
10:25pm           278        0.0       10.0         71       32.8      29.90       24.4      0.017       22.0       22.0         92       47.0         60       32.8       0.00       0.00
10:30pm           265        3.0       13.0         71       32.5      29.90       24.2      0.019       22.0       22.0         92       47.0         60       32.5       0.00       0.00
10:35pm           292        5.0       13.0         70       32.2      29.90       23.5      0.018       22.0       22.0         92       47.0         60       32.2       0.00       0.00
10:40pm           266        0.0       13.0         70       31.9      29.90       23.2      0.016       22.0       22.0         92       47.0         60       31.9       0.00       0.00
10:45pm           316        0.0       13.0         70       31.6      29.90       23.0      0.011       22.0       22.0         92       47.0         60       31.6       0.00       0.00
10:50pm           271        3.0       13.0         70       31.5      29.90       22.9      0.010       22.0       22.0         92       47.0         60       31.5       0.00       0.00
10:55pm           265        2.0       13.0         70       31.5      29.90       22.9      0.009       22.0       22.0         92       47.0         60       31.5       0.00       0.00
11:00pm           266        2.0       13.0         70       31.3      29.91       22.7      0.025       22.0       22.0         92       47.0         60       31.3       0.00       0.00
11:05pm           254        5.0       12.0         70       31.3      29.91       22.7      0.023       22.0       22.0         92       47.0         60       31.3       0.00       0.00
11:10pm           319        5.0       12.0         70       31.2      29.91       22.6      0.021       22.0       22.0         92       47.0         60       31.2       0.00       0.00
11:15pm           290        6.0       12.0         69       31.2      29.92       22.2      0.028       22.0       22.0         92       47.0         60       31.2       0.00       0.00
11:20pm           252        5.0       14.0         69       31.2      29.92       22.2      0.025       22.0       22.0         92       47.0         60       31.2       0.00       0.00
11:25pm           231        7.0       14.0         69       31.0      29.92       22.0      0.023       22.0       22.0         92       47.0         60       31.0       0.00       0.00
11:30pm           306        2.0       14.0         68       30.9      29.93       21.6      0.029       22.0       22.0         92       47.0         60       30.9       0.00       0.00
11:35pm           293        2.0       14.0         68       30.7      29.93       21.4      0.027       22.0       22.0         92       47.0         60       30.7       0.00       0.00
11:40pm           320        0.0       14.0         68       30.7      29.93       21.4      0.025       22.0       22.0         92       47.0         60       30.7       0.00       0.00
11:45pm           313        1.0       14.0         68       30.6      29.94       21.3      0.031       22.0       22.0         92       47.0         60       30.6       0.00       0.00
11:50pm           285        5.0       14.0         66       30.3      29.94       20.3      0.028       22.0       22.0         92       47.0         60       30.3       0.00       0.00
11:55pm           282        2.0       14.0         64       30.0      29.94       19.3      0.026       22.0       22.0         92       47.0         60       30.0       0.00       0.00


Updated Automatically by Ambient Software's Virtual Weather Station  V14.01
All rights reserved. Unauthorized duplication or distribution is prohibited
Never base important decisions on this or any weather information obtained from the Internet